sensor_id;sensor_type;location;lat;lon;timestamp;pressure;altitude;pressure_sealevel;temperature;humidity
44359;BME280;30077;52.474;13.326;2023-02-22T00:02:45;101073.13;;;8.02;100.00
44359;BME280;30077;52.474;13.326;2023-02-22T00:07:47;101066.16;;;7.98;100.00
44359;BME280;30077;52.474;13.326;2023-02-22T00:12:49;101062.78;;;7.93;100.00
44359;BME280;30077;52.474;13.326;2023-02-22T00:17:49;101062.22;;;7.80;100.00
44359;BME280;30077;52.474;13.326;2023-02-22T00:22:49;101058.19;;;7.65;100.00
44359;BME280;30077;52.474;13.326;2023-02-22T00:27:52;101055.72;;;7.59;100.00
44359;BME280;30077;52.474;13.326;2023-02-22T00:32:53;101055.78;;;7.56;100.00
44359;BME280;30077;52.474;13.326;2023-02-22T00:37:58;101052.31;;;7.54;100.00
44359;BME280;30077;52.474;13.326;2023-02-22T00:42:59;101050.63;;;7.52;100.00
44359;BME280;30077;52.474;13.326;2023-02-22T00:48:00;101052.56;;;7.45;100.00
44359;BME280;30077;52.474;13.326;2023-02-22T00:53:01;101051.97;;;7.34;100.00
44359;BME280;30077;52.474;13.326;2023-02-22T00:58:03;101057.41;;;7.28;100.00
44359;BME280;30077;52.474;13.326;2023-02-22T01:03:04;101051.31;;;7.24;100.00
44359;BME280;30077;52.474;13.326;2023-02-22T01:08:05;101053.91;;;7.26;100.00
44359;BME280;30077;52.474;13.326;2023-02-22T01:13:06;101051.97;;;7.34;100.00
44359;BME280;30077;52.474;13.326;2023-02-22T01:18:11;101049.19;;;7.37;100.00
44359;BME280;30077;52.474;13.326;2023-02-22T01:23:11;101047.47;;;7.36;100.00
44359;BME280;30077;52.474;13.326;2023-02-22T01:28:11;101044.81;;;7.36;100.00
44359;BME280;30077;52.474;13.326;2023-02-22T01:33:12;101041.41;;;7.31;100.00
44359;BME280;30077;52.474;13.326;2023-02-22T01:38:14;101052.09;;;7.28;100.00
44359;BME280;30077;52.474;13.326;2023-02-22T01:43:22;101035.34;;;7.26;100.00
44359;BME280;30077;52.474;13.326;2023-02-22T01:53:27;101030.94;;;7.24;100.00
44359;BME280;30077;52.474;13.326;2023-02-22T01:58:30;101028.44;;;7.20;100.00
44359;BME280;30077;52.474;13.326;2023-02-22T02:03:32;101038.16;;;7.19;100.00
44359;BME280;30077;52.474;13.326;2023-02-22T02:08:39;101036.34;;;7.21;100.00
44359;BME280;30077;52.474;13.326;2023-02-22T02:13:49;101028.31;;;7.24;100.00
44359;BME280;30077;52.474;13.326;2023-02-22T02:18:50;101028.22;;;7.28;100.00
44359;BME280;30077;52.474;13.326;2023-02-22T02:29:10;101015.34;;;7.12;100.00
44359;BME280;30077;52.474;13.326;2023-02-22T02:34:30;101023.41;;;7.08;100.00
44359;BME280;30077;52.474;13.326;2023-02-22T02:39:47;101023.66;;;6.98;100.00
44359;BME280;30077;52.474;13.326;2023-02-22T02:45:13;101019.34;;;6.93;100.00
44359;BME280;30077;52.474;13.326;2023-02-22T02:50:15;101013.38;;;6.85;100.00
44359;BME280;30077;52.474;13.326;2023-02-22T02:55:17;101016.09;;;6.82;100.00
44359;BME280;30077;52.474;13.326;2023-02-22T03:00:19;101016.13;;;6.80;100.00
44359;BME280;30077;52.474;13.326;2023-02-22T03:10:29;101015.41;;;6.73;100.00
44359;BME280;30077;52.474;13.326;2023-02-22T03:15:41;101005.66;;;6.75;100.00
44359;BME280;30077;52.474;13.326;2023-02-22T03:20:49;101005.56;;;6.79;100.00
44359;BME280;30077;52.474;13.326;2023-02-22T03:26:00;100999.28;;;6.83;100.00
44359;BME280;30077;52.474;13.326;2023-02-22T03:31:03;101007.06;;;6.89;100.00
44359;BME280;30077;52.474;13.326;2023-02-22T03:36:18;100999.00;;;6.93;100.00
44359;BME280;30077;52.474;13.326;2023-02-22T03:41:21;101008.59;;;6.99;100.00
44359;BME280;30077;52.474;13.326;2023-02-22T03:46:24;101010.34;;;7.00;100.00
44359;BME280;30077;52.474;13.326;2023-02-22T03:51:25;101013.84;;;7.00;100.00
44359;BME280;30077;52.474;13.326;2023-02-22T03:56:30;101009.44;;;7.01;100.00
44359;BME280;30077;52.474;13.326;2023-02-22T04:01:34;101008.59;;;6.99;100.00
44359;BME280;30077;52.474;13.326;2023-02-22T04:06:35;101010.38;;;6.98;100.00
44359;BME280;30077;52.474;13.326;2023-02-22T04:11:35;101016.63;;;6.97;100.00
44359;BME280;30077;52.474;13.326;2023-02-22T04:16:35;101007.75;;;6.97;100.00
44359;BME280;30077;52.474;13.326;2023-02-22T04:21:35;101011.25;;;6.99;100.00
44359;BME280;30077;52.474;13.326;2023-02-22T04:26:35;100999.66;;;7.03;100.00
44359;BME280;30077;52.474;13.326;2023-02-22T04:31:36;101006.47;;;7.13;100.00
44359;BME280;30077;52.474;13.326;2023-02-22T04:36:36;101001.25;;;7.10;100.00
44359;BME280;30077;52.474;13.326;2023-02-22T04:41:36;100999.50;;;7.09;100.00
44359;BME280;30077;52.474;13.326;2023-02-22T04:46:36;100996.84;;;7.09;100.00
44359;BME280;30077;52.474;13.326;2023-02-22T04:51:36;100998.63;;;7.09;100.00
44359;BME280;30077;52.474;13.326;2023-02-22T04:56:36;100996.00;;;7.07;100.00
44359;BME280;30077;52.474;13.326;2023-02-22T05:01:37;100999.44;;;7.11;100.00
44359;BME280;30077;52.474;13.326;2023-02-22T05:06:37;100998.59;;;7.10;100.00
44359;BME280;30077;52.474;13.326;2023-02-22T05:11:37;101002.09;;;7.11;100.00
44359;BME280;30077;52.474;13.326;2023-02-22T05:16:37;100997.66;;;7.11;100.00
44359;BME280;30077;52.474;13.326;2023-02-22T05:21:38;100985.31;;;7.10;100.00
44359;BME280;30077;52.474;13.326;2023-02-22T05:26:39;100983.50;;;7.12;100.00
44359;BME280;30077;52.474;13.326;2023-02-22T05:31:39;100988.91;;;7.09;100.00
44359;BME280;30077;52.474;13.326;2023-02-22T05:36:40;100985.25;;;7.13;100.00
44359;BME280;30077;52.474;13.326;2023-02-22T05:41:40;100981.69;;;7.14;100.00
44359;BME280;30077;52.474;13.326;2023-02-22T05:46:41;100999.25;;;7.18;100.00
44359;BME280;30077;52.474;13.326;2023-02-22T05:51:41;101000.91;;;7.22;100.00
44359;BME280;30077;52.474;13.326;2023-02-22T05:56:41;100998.25;;;7.22;100.00
44359;BME280;30077;52.474;13.326;2023-02-22T06:01:41;101003.56;;;7.22;100.00
44359;BME280;30077;52.474;13.326;2023-02-22T06:06:42;101004.41;;;7.24;100.00
44359;BME280;30077;52.474;13.326;2023-02-22T06:11:42;101016.69;;;7.29;100.00
44359;BME280;30077;52.474;13.326;2023-02-22T06:16:42;101013.16;;;7.28;100.00
44359;BME280;30077;52.474;13.326;2023-02-22T06:21:52;101021.06;;;7.31;100.00
44359;BME280;30077;52.474;13.326;2023-02-22T06:26:56;101017.53;;;7.31;100.00
44359;BME280;30077;52.474;13.326;2023-02-22T06:31:56;101016.53;;;7.35;100.00
44359;BME280;30077;52.474;13.326;2023-02-22T06:36:57;101025.25;;;7.40;100.00
44359;BME280;30077;52.474;13.326;2023-02-22T06:41:58;101021.59;;;7.44;100.00
44359;BME280;30077;52.474;13.326;2023-02-22T06:47:00;101037.38;;;7.50;100.00
44359;BME280;30077;52.474;13.326;2023-02-22T06:52:02;101036.41;;;7.53;100.00
44359;BME280;30077;52.474;13.326;2023-02-22T06:57:03;101040.59;;;7.61;100.00
44359;BME280;30077;52.474;13.326;2023-02-22T07:02:03;101041.25;;;7.69;100.00
44359;BME280;30077;52.474;13.326;2023-02-22T07:07:04;101041.88;;;7.79;100.00
44359;BME280;30077;52.474;13.326;2023-02-22T07:12:05;101045.25;;;7.86;100.00
44359;BME280;30077;52.474;13.326;2023-02-22T07:17:06;101048.47;;;7.97;100.00
44359;BME280;30077;52.474;13.326;2023-02-22T07:22:06;101050.88;;;8.06;100.00
44359;BME280;30077;52.474;13.326;2023-02-22T07:27:06;101055.97;;;8.14;100.00
44359;BME280;30077;52.474;13.326;2023-02-22T07:32:06;101049.38;;;8.27;100.00
44359;BME280;30077;52.474;13.326;2023-02-22T07:37:07;101046.72;;;8.27;100.00
44359;BME280;30077;52.474;13.326;2023-02-22T07:42:07;101052.59;;;8.40;100.00
44359;BME280;30077;52.474;13.326;2023-02-22T07:47:07;101051.56;;;8.44;100.00
44359;BME280;30077;52.474;13.326;2023-02-22T07:52:09;101053.38;;;8.43;100.00
44359;BME280;30077;52.474;13.326;2023-02-22T07:57:11;101049.75;;;8.46;100.00
44359;BME280;30077;52.474;13.326;2023-02-22T08:02:14;101056.75;;;8.49;100.00
44359;BME280;30077;52.474;13.326;2023-02-22T08:07:15;101058.50;;;8.50;100.00
44359;BME280;30077;52.474;13.326;2023-02-22T08:12:16;101059.16;;;8.56;100.00
44359;BME280;30077;52.474;13.326;2023-02-22T08:17:17;101056.19;;;8.67;100.00
44359;BME280;30077;52.474;13.326;2023-02-22T08:22:17;101047.88;;;8.78;100.00
44359;BME280;30077;52.474;13.326;2023-02-22T08:27:21;101055.47;;;8.90;100.00
44359;BME280;30077;52.474;13.326;2023-02-22T08:32:21;101059.56;;;9.00;100.00
44359;BME280;30077;52.474;13.326;2023-02-22T08:37:21;101059.28;;;9.09;100.00
44359;BME280;30077;52.474;13.326;2023-02-22T08:42:21;101058.09;;;9.18;100.00
44359;BME280;30077;52.474;13.326;2023-02-22T08:47:22;101054.38;;;9.24;99.54
44359;BME280;30077;52.474;13.326;2023-02-22T08:52:22;101050.53;;;9.32;99.46
44359;BME280;30077;52.474;13.326;2023-02-22T08:57:22;101060.03;;;9.39;98.10
44359;BME280;30077;52.474;13.326;2023-02-22T09:02:23;101058.66;;;9.54;96.81
44359;BME280;30077;52.474;13.326;2023-02-22T09:07:23;101057.63;;;9.58;95.76
44359;BME280;30077;52.474;13.326;2023-02-22T09:12:24;101059.91;;;9.69;94.51
44359;BME280;30077;52.474;13.326;2023-02-22T09:17:24;101056.75;;;9.83;93.77
44359;BME280;30077;52.474;13.326;2023-02-22T09:22:24;101064.34;;;9.95;93.19
44359;BME280;30077;52.474;13.326;2023-02-22T09:27:24;101056.56;;;9.89;91.29
44359;BME280;30077;52.474;13.326;2023-02-22T09:32:27;101051.16;;;9.91;91.29
44359;BME280;30077;52.474;13.326;2023-02-22T09:37:27;101050.44;;;10.10;88.72
44359;BME280;30077;52.474;13.326;2023-02-22T09:42:33;101052.28;;;10.33;86.97
44359;BME280;30077;52.474;13.326;2023-02-22T09:47:44;101042.03;;;10.46;86.67
44359;BME280;30077;52.474;13.326;2023-02-22T09:52:59;101039.56;;;10.85;85.21
44359;BME280;30077;52.474;13.326;2023-02-22T09:58:06;101040.28;;;10.89;83.35
44359;BME280;30077;52.474;13.326;2023-02-22T10:08:13;101035.56;;;11.18;81.40
44359;BME280;30077;52.474;13.326;2023-02-22T10:23:29;101020.53;;;11.37;80.61
44359;BME280;30077;52.474;13.326;2023-02-22T10:28:40;101019.28;;;11.24;80.10
44359;BME280;30077;52.474;13.326;2023-02-22T10:33:46;101016.56;;;11.03;81.44
44359;BME280;30077;52.474;13.326;2023-02-22T10:38:50;101017.00;;;11.15;82.20
44359;BME280;30077;52.474;13.326;2023-02-22T10:43:53;101015.06;;;11.18;82.00
44359;BME280;30077;52.474;13.326;2023-02-22T10:48:53;101018.47;;;10.79;82.71
44359;BME280;30077;52.474;13.326;2023-02-22T10:54:05;101009.25;;;11.08;82.14
44359;BME280;30077;52.474;13.326;2023-02-22T10:59:25;101011.63;;;10.94;81.79
44359;BME280;30077;52.474;13.326;2023-02-22T11:04:26;101011.97;;;11.07;81.24
44359;BME280;30077;52.474;13.326;2023-02-22T11:09:26;101011.88;;;10.88;82.22
44359;BME280;30077;52.474;13.326;2023-02-22T11:14:28;101011.75;;;10.91;82.14
44359;BME280;30077;52.474;13.326;2023-02-22T11:19:30;101006.31;;;11.15;81.47
44359;BME280;30077;52.474;13.326;2023-02-22T11:24:30;101003.94;;;11.08;81.02
44359;BME280;30077;52.474;13.326;2023-02-22T11:29:32;100997.59;;;11.11;79.79
44359;BME280;30077;52.474;13.326;2023-02-22T11:34:34;100993.16;;;11.10;79.87
44359;BME280;30077;52.474;13.326;2023-02-22T11:39:35;100988.19;;;11.23;78.99
44359;BME280;30077;52.474;13.326;2023-02-22T11:44:37;100988.31;;;11.20;78.54
44359;BME280;30077;52.474;13.326;2023-02-22T11:49:40;100978.91;;;11.31;77.76
44359;BME280;30077;52.474;13.326;2023-02-22T12:00:03;100967.75;;;11.22;77.17
44359;BME280;30077;52.474;13.326;2023-02-22T12:10:57;100957.50;;;11.33;75.53
44359;BME280;30077;52.474;13.326;2023-02-22T12:21:20;100953.13;;;11.51;74.94
44359;BME280;30077;52.474;13.326;2023-02-22T12:26:24;100948.50;;;11.54;75.16
44359;BME280;30077;52.474;13.326;2023-02-22T12:31:38;100952.13;;;11.53;75.02
44359;BME280;30077;52.474;13.326;2023-02-22T12:36:46;100952.59;;;11.63;74.06
44359;BME280;30077;52.474;13.326;2023-02-22T12:41:47;100946.66;;;11.75;74.31
44359;BME280;30077;52.474;13.326;2023-02-22T12:46:52;100952.38;;;11.68;74.98
44359;BME280;30077;52.474;13.326;2023-02-22T13:02:11;100950.78;;;11.43;75.46
44359;BME280;30077;52.474;13.326;2023-02-22T13:07:30;100946.25;;;11.45;75.64
44359;BME280;30077;52.474;13.326;2023-02-22T13:17:46;100934.34;;;11.52;75.32
44359;BME280;30077;52.474;13.326;2023-02-22T13:23:00;100936.69;;;11.60;74.43
44359;BME280;30077;52.474;13.326;2023-02-22T13:38:29;100921.22;;;11.27;76.38
44359;BME280;30077;52.474;13.326;2023-02-22T13:43:44;100921.69;;;11.37;76.57
44359;BME280;30077;52.474;13.326;2023-02-22T13:59:20;100911.59;;;11.23;76.39
44359;BME280;30077;52.474;13.326;2023-02-22T14:04:44;100923.81;;;11.08;76.83
44359;BME280;30077;52.474;13.326;2023-02-22T14:09:47;100912.84;;;11.15;76.94
44359;BME280;30077;52.474;13.326;2023-02-22T14:15:07;100909.28;;;11.16;76.54
44359;BME280;30077;52.474;13.326;2023-02-22T14:30:34;100902.91;;;11.18;76.71
44359;BME280;30077;52.474;13.326;2023-02-22T14:35:37;100896.59;;;11.00;77.63
44359;BME280;30077;52.474;13.326;2023-02-22T14:40:39;100900.72;;;10.87;78.38
44359;BME280;30077;52.474;13.326;2023-02-22T14:45:46;100881.78;;;10.93;78.90
44359;BME280;30077;52.474;13.326;2023-02-22T14:50:50;100885.63;;;10.86;78.78
44359;BME280;30077;52.474;13.326;2023-02-22T14:55:55;100874.81;;;10.69;79.43
44359;BME280;30077;52.474;13.326;2023-02-22T15:00:55;100879.59;;;10.60;79.66
44359;BME280;30077;52.474;13.326;2023-02-22T15:05:56;100877.84;;;10.59;79.57
44359;BME280;30077;52.474;13.326;2023-02-22T15:10:59;100878.38;;;10.47;79.86
44359;BME280;30077;52.474;13.326;2023-02-22T15:16:02;100868.88;;;10.40;81.02
44359;BME280;30077;52.474;13.326;2023-02-22T15:21:07;100873.66;;;10.32;81.35
44359;BME280;30077;52.474;13.326;2023-02-22T15:26:23;100864.97;;;10.27;82.34
44359;BME280;30077;52.474;13.326;2023-02-22T15:36:26;100870.22;;;10.06;84.26
44359;BME280;30077;52.474;13.326;2023-02-22T15:41:29;100867.66;;;10.03;84.60
44359;BME280;30077;52.474;13.326;2023-02-22T15:46:30;100859.13;;;9.95;84.33
44359;BME280;30077;52.474;13.326;2023-02-22T15:51:31;100853.78;;;9.72;85.69
44359;BME280;30077;52.474;13.326;2023-02-22T15:56:32;100857.50;;;9.68;86.61
44359;BME280;30077;52.474;13.326;2023-02-22T16:01:39;100849.63;;;9.64;87.43
44359;BME280;30077;52.474;13.326;2023-02-22T16:06:40;100857.28;;;9.50;87.69
44359;BME280;30077;52.474;13.326;2023-02-22T16:11:42;100852.41;;;9.38;88.44
44359;BME280;30077;52.474;13.326;2023-02-22T16:16:43;100848.25;;;9.31;89.30
44359;BME280;30077;52.474;13.326;2023-02-22T16:22:00;100847.53;;;9.26;89.65
44359;BME280;30077;52.474;13.326;2023-02-22T16:32:04;100853.66;;;9.04;91.70
44359;BME280;30077;52.474;13.326;2023-02-22T16:37:05;100848.81;;;8.90;92.46
44359;BME280;30077;52.474;13.326;2023-02-22T16:42:20;100845.75;;;8.76;93.39
44359;BME280;30077;52.474;13.326;2023-02-22T16:47:23;100852.31;;;8.66;94.49
44359;BME280;30077;52.474;13.326;2023-02-22T16:52:23;100851.75;;;8.56;94.63
44359;BME280;30077;52.474;13.326;2023-02-22T16:57:23;100853.91;;;8.45;94.53
44359;BME280;30077;52.474;13.326;2023-02-22T17:02:24;100851.56;;;8.34;94.39
44359;BME280;30077;52.474;13.326;2023-02-22T17:07:26;100844.59;;;8.30;94.17
44359;BME280;30077;52.474;13.326;2023-02-22T17:12:29;100844.94;;;8.21;94.68
44359;BME280;30077;52.474;13.326;2023-02-22T17:17:31;100846.81;;;8.17;95.93
44359;BME280;30077;52.474;13.326;2023-02-22T17:22:31;100847.94;;;8.10;96.66
44359;BME280;30077;52.474;13.326;2023-02-22T17:27:31;100845.31;;;8.09;96.71
44359;BME280;30077;52.474;13.326;2023-02-22T17:32:32;100842.78;;;8.04;97.10
44359;BME280;30077;52.474;13.326;2023-02-22T17:37:32;100848.28;;;7.98;96.99
44359;BME280;30077;52.474;13.326;2023-02-22T17:42:32;100850.16;;;7.96;97.37
44359;BME280;30077;52.474;13.326;2023-02-22T17:47:32;100843.28;;;7.89;98.03
44359;BME280;30077;52.474;13.326;2023-02-22T17:52:32;100839.88;;;7.84;98.48
44359;BME280;30077;52.474;13.326;2023-02-22T17:57:33;100840.09;;;7.78;98.95
44359;BME280;30077;52.474;13.326;2023-02-22T18:02:35;100838.53;;;7.70;99.73
44359;BME280;30077;52.474;13.326;2023-02-22T18:07:35;100844.88;;;7.66;99.93
44359;BME280;30077;52.474;13.326;2023-02-22T18:12:35;100836.13;;;7.63;99.38
44359;BME280;30077;52.474;13.326;2023-02-22T18:17:36;100835.34;;;7.59;99.05
44359;BME280;30077;52.474;13.326;2023-02-22T18:22:40;100833.66;;;7.57;98.81
44359;BME280;30077;52.474;13.326;2023-02-22T18:27:42;100840.88;;;7.52;98.61
44359;BME280;30077;52.474;13.326;2023-02-22T18:32:42;100826.91;;;7.45;99.02
44359;BME280;30077;52.474;13.326;2023-02-22T18:37:44;100835.91;;;7.41;99.32
44359;BME280;30077;52.474;13.326;2023-02-22T18:42:45;100830.59;;;7.41;98.98
44359;BME280;30077;52.474;13.326;2023-02-22T18:47:45;100824.53;;;7.36;98.67
44359;BME280;30077;52.474;13.326;2023-02-22T18:52:45;100829.03;;;7.34;98.77
44359;BME280;30077;52.474;13.326;2023-02-22T18:57:46;100831.69;;;7.32;99.53
44359;BME280;30077;52.474;13.326;2023-02-22T19:02:49;100815.06;;;7.27;99.63
44359;BME280;30077;52.474;13.326;2023-02-22T19:07:51;100813.41;;;7.23;99.73
44359;BME280;30077;52.474;13.326;2023-02-22T19:12:51;100816.16;;;7.20;100.00
44359;BME280;30077;52.474;13.326;2023-02-22T19:17:51;100815.31;;;7.18;99.98
44359;BME280;30077;52.474;13.326;2023-02-22T19:22:51;100819.03;;;7.12;100.00
44359;BME280;30077;52.474;13.326;2023-02-22T19:27:52;100833.22;;;7.10;100.00
44359;BME280;30077;52.474;13.326;2023-02-22T19:32:55;100824.50;;;7.06;100.00
44359;BME280;30077;52.474;13.326;2023-02-22T19:37:56;100826.31;;;7.04;100.00
44359;BME280;30077;52.474;13.326;2023-02-22T19:42:57;100828.16;;;7.02;100.00
44359;BME280;30077;52.474;13.326;2023-02-22T19:47:57;100835.34;;;6.97;100.00
44359;BME280;30077;52.474;13.326;2023-02-22T19:52:57;100821.28;;;6.95;100.00
44359;BME280;30077;52.474;13.326;2023-02-22T19:57:58;100823.16;;;6.90;100.00
44359;BME280;30077;52.474;13.326;2023-02-22T20:02:58;100825.00;;;6.88;100.00
44359;BME280;30077;52.474;13.326;2023-02-22T20:08:12;100823.34;;;6.84;100.00
44359;BME280;30077;52.474;13.326;2023-02-22T20:13:12;100819.78;;;6.85;100.00
44359;BME280;30077;52.474;13.326;2023-02-22T20:18:12;100827.00;;;6.80;100.00
44359;BME280;30077;52.474;13.326;2023-02-22T20:23:12;100815.63;;;6.74;100.00
44359;BME280;30077;52.474;13.326;2023-02-22T20:28:13;100826.38;;;6.70;100.00
44359;BME280;30077;52.474;13.326;2023-02-22T20:33:13;100820.34;;;6.63;100.00
44359;BME280;30077;52.474;13.326;2023-02-22T20:38:13;100820.41;;;6.62;100.00
44359;BME280;30077;52.474;13.326;2023-02-22T20:43:13;100829.28;;;6.59;100.00
44359;BME280;30077;52.474;13.326;2023-02-22T20:48:14;100814.50;;;6.50;100.00
44359;BME280;30077;52.474;13.326;2023-02-22T20:53:14;100813.72;;;6.47;100.00
44359;BME280;30077;52.474;13.326;2023-02-22T20:58:14;100807.69;;;6.40;100.00
44359;BME280;30077;52.474;13.326;2023-02-22T21:03:14;100810.47;;;6.36;100.00
44359;BME280;30077;52.474;13.326;2023-02-22T21:08:14;100814.09;;;6.32;100.00
44359;BME280;30077;52.474;13.326;2023-02-22T21:13:14;100816.00;;;6.26;100.00
44359;BME280;30077;52.474;13.326;2023-02-22T21:18:14;100817.91;;;6.21;100.00
44359;BME280;30077;52.474;13.326;2023-02-22T21:23:15;100815.44;;;6.14;100.00
44359;BME280;30077;52.474;13.326;2023-02-22T21:28:15;100805.78;;;6.11;100.00
44359;BME280;30077;52.474;13.326;2023-02-22T21:33:15;100805.81;;;6.10;99.81
44359;BME280;30077;52.474;13.326;2023-02-22T21:38:15;100797.00;;;6.09;99.53
44359;BME280;30077;52.474;13.326;2023-02-22T21:43:16;100798.91;;;6.04;99.54
44359;BME280;30077;52.474;13.326;2023-02-22T21:48:17;100804.31;;;5.98;98.96
44359;BME280;30077;52.474;13.326;2023-02-22T21:53:18;100796.50;;;5.93;99.07
44359;BME280;30077;52.474;13.326;2023-02-22T21:58:18;100793.94;;;5.89;98.70
44359;BME280;30077;52.474;13.326;2023-02-22T22:03:18;100785.06;;;5.90;98.29
44359;BME280;30077;52.474;13.326;2023-02-22T22:08:21;100779.09;;;5.82;98.72
44359;BME280;30077;52.474;13.326;2023-02-22T22:13:24;100773.03;;;5.76;98.92
44359;BME280;30077;52.474;13.326;2023-02-22T22:18:27;100781.81;;;5.78;98.97
44359;BME280;30077;52.474;13.326;2023-02-22T22:23:27;100780.28;;;5.68;99.33
44359;BME280;30077;52.474;13.326;2023-02-22T22:28:27;100770.69;;;5.63;99.62
44359;BME280;30077;52.474;13.326;2023-02-22T22:33:27;100775.34;;;5.53;100.00
44359;BME280;30077;52.474;13.326;2023-02-22T22:38:27;100764.81;;;5.50;100.00
44359;BME280;30077;52.474;13.326;2023-02-22T22:43:28;100764.88;;;5.48;100.00
44359;BME280;30077;52.474;13.326;2023-02-22T22:48:29;100758.78;;;5.45;100.00
44359;BME280;30077;52.474;13.326;2023-02-22T22:53:34;100770.25;;;5.44;100.00
44359;BME280;30077;52.474;13.326;2023-02-22T22:58:34;100768.44;;;5.46;100.00
44359;BME280;30077;52.474;13.326;2023-02-22T23:03:34;100752.69;;;5.40;100.00
44359;BME280;30077;52.474;13.326;2023-02-22T23:08:37;100759.72;;;5.41;100.00
44359;BME280;30077;52.474;13.326;2023-02-22T23:13:42;100749.25;;;5.38;100.00
44359;BME280;30077;52.474;13.326;2023-02-22T23:18:42;100751.16;;;5.31;100.00
44359;BME280;30077;52.474;13.326;2023-02-22T23:23:42;100747.63;;;5.30;100.00
44359;BME280;30077;52.474;13.326;2023-02-22T23:28:44;100748.38;;;5.36;100.00
44359;BME280;30077;52.474;13.326;2023-02-22T23:33:45;100744.06;;;5.31;100.00
44359;BME280;30077;52.474;13.326;2023-02-22T23:38:47;100744.13;;;5.28;100.00
44359;BME280;30077;52.474;13.326;2023-02-22T23:43:47;100747.75;;;5.24;100.00
44359;BME280;30077;52.474;13.326;2023-02-22T23:48:48;100740.75;;;5.22;100.00
44359;BME280;30077;52.474;13.326;2023-02-22T23:53:50;100746.03;;;5.23;100.00
44359;BME280;30077;52.474;13.326;2023-02-22T23:58:54;100739.94;;;5.18;100.00
